Mexico, MO (65265)

4:03 AM CDT on August 30, 2015 (GMT -0500)
APRSWXNET | | Change Station
CLOSE
Current Station
Personal Weather Station
Location: Mexico, MO
Elevation: 800 ft
Nearby Weather Stations

Elev 800 ft 39.17 °N, 91.87 °W | Updated 37 minutes ago

Fog
Fog
69 °F
Feels Like 69 °F
N
0
Wind Variable Wind from NNW
Gusts 0.0 mph

Today
High -- | Low -- °F
--% Chance of Precip.
Yesterday
High -- | Low -- °F
Precip. -- in
6:34 AM 7:41 PM
Waxing Gibbous, 99% visible
Pressure 29.98 in
Visibility 2.5 miles
Clouds Clear
Dew Point 67 °F
Humidity 92%
Rainfall in
Snow Depth Not available.
UV 0 out of 12
Pollen 7.50 out of 12
Air Quality Not available.
Flu Activity Not available.
METAR KCOU 300854Z AUTO 04005KT 2 1/2SM BR CLR 19/19 A3000 RMK AO2 SLP152 T01940189 55007 TSNO
Pressure 29.98 in
Visibility 2.5 miles
Clouds Clear
Dew Point 67 °F
Humidity 92%
Rainfall in
Snow Depth Not available.
UV 0 out of 12
Pollen 7.50 out of 12
Air Quality Not available.
Flu Activity Not available.
METAR KCOU 300854Z AUTO 04005KT 2 1/2SM BR CLR 19/19 A3000 RMK AO2 SLP152 T01940189 55007 TSNO

10-Day Weather Forecast

×

Almanac

Astronomy

Aug. 30, 2015 Rise Set
Actual Time
Civil Twilight
Nautical Twilight
Astronomical Twilight
Moon
Length of Visible Light
Length of Day
Tomorrow will be .
, % of the Moon is Illuminated

Today's Extremes

State Highs State Lows

Community

WunderPhotos

Upload Photos

1,850,909 photos uploaded!

WunderBlogs® & News

Nearby

Air Quality

  Air Quality AQ Index Pollutant
Not available.

Snow Depth

Station Depth Elevation

Earthquake Activity

City Distance Mag. Time & Date
Minimum magnitude displayed is 2.5.

Coastal Water Temperatures

Place Temperature

Stations

Nearby Weather Stations

Station Location Temp. Windchill Dew Point Humidity Wind Precip. Elev Updated Type